Time;durP1;ratioP1;P1;durP2;ratioP2;P2;SDS_P1;SDS_P2;PMS_P1;PMS_P2;Temp;Humidity;BMP_temperature;BMP_pressure;BME280_temperature;BME280_humidity;BME280_pressure;Samples;Min_cycle;Max_cycle;Signal;HPM_P1;HPM_P2
2023/08/25 00:02:33;;;;;;;10.43;6.68;;;24.70;94.80;;;;;;5094250;28;20028;-52
2023/08/25 00:05:19;;;;;;;7.53;6.78;;;24.70;94.80;;;;;;5094162;28;20114;-48
2023/08/25 00:08:06;;;;;;;8.52;7.70;;;24.60;94.90;;;;;;5093683;28;20024;-49
2023/08/25 00:10:52;;;;;;;8.43;6.95;;;24.60;95.00;;;;;;5095733;28;20528;-49
2023/08/25 00:13:38;;;;;;;8.40;7.20;;;24.50;95.10;;;;;;5093766;28;20031;-47
2023/08/25 00:16:25;;;;;;;8.88;7.32;;;24.50;95.20;;;;;;5094461;28;20028;-50
2023/08/25 00:19:11;;;;;;;8.77;7.60;;;24.50;95.30;;;;;;5093807;28;20036;-51
2023/08/25 00:21:56;;;;;;;7.82;7.05;;;24.50;95.40;;;;;;5095074;28;20028;-47
2023/08/25 00:24:42;;;;;;;11.25;6.95;;;24.50;95.30;;;;;;5094444;28;20119;-49
2023/08/25 00:27:28;;;;;;;8.20;7.07;;;24.50;95.30;;;;;;5094781;28;20063;-48
2023/08/25 00:30:14;;;;;;;8.23;7.30;;;24.40;95.50;;;;;;5093786;28;20035;-47
2023/08/25 00:33:00;;;;;;;15.07;10.73;;;24.40;95.50;;;;;;5094829;28;20024;-49
2023/08/25 00:35:46;;;;;;;8.55;7.70;;;24.40;95.80;;;;;;5079426;28;20028;-49
2023/08/25 00:38:32;;;;;;;8.98;7.78;;;24.30;96.00;;;;;;5094767;28;20060;-52
2023/08/25 00:41:18;;;;;;;9.00;8.10;;;24.20;96.30;;;;;;5093277;28;20032;-47
2023/08/25 00:44:04;;;;;;;8.45;7.53;;;24.20;96.50;;;;;;5094514;28;20032;-48
2023/08/25 00:46:50;;;;;;;8.52;7.30;;;24.20;96.70;;;;;;5092748;28;20032;-52
2023/08/25 00:49:37;;;;;;;8.45;7.63;;;24.20;96.90;;;;;;5093749;28;20082;-50
2023/08/25 00:52:23;;;;;;;8.82;8.02;;;24.20;97.00;;;;;;5094200;28;20039;-49
2023/08/25 00:55:09;;;;;;;10.13;8.75;;;24.30;97.10;;;;;;5078972;28;20024;-52
2023/08/25 00:57:57;;;;;;;11.75;8.45;;;24.20;97.30;;;;;;5093104;28;20024;-46
2023/08/25 01:00:44;;;;;;;12.27;8.27;;;24.10;97.50;;;;;;5092541;28;20077;-48
2023/08/25 01:03:30;;;;;;;10.38;8.93;;;24.00;97.50;;;;;;5094963;28;20035;-51
2023/08/25 01:06:16;;;;;;;10.85;9.48;;;23.90;97.60;;;;;;5094097;28;20099;-50
2023/08/25 01:09:04;;;;;;;11.43;9.52;;;23.80;98.10;;;;;;5094136;28;20029;-50
2023/08/25 01:12:09;;;;;;;10.93;8.77;;;23.70;98.10;;;;;;5094547;28;20024;-48
2023/08/25 01:15:12;;;;;;;11.55;9.88;;;23.60;98.40;;;;;;5093288;28;20020;-51
2023/08/25 01:18:04;;;;;;;10.15;9.15;;;23.50;98.70;;;;;;5093491;28;20052;-46
2023/08/25 01:20:51;;;;;;;11.52;9.52;;;23.50;98.80;;;;;;5092707;28;20024;-46
2023/08/25 01:23:56;;;;;;;13.70;9.57;;;23.40;99.00;;;;;;5093940;28;20020;-48
2023/08/25 01:26:42;;;;;;;16.30;10.68;;;23.40;98.90;;;;;;5092294;28;20028;-47
2023/08/25 01:29:28;;;;;;;11.13;10.02;;;23.40;99.00;;;;;;5092345;28;20066;-50
2023/08/25 01:32:14;;;;;;;14.63;9.30;;;23.40;98.90;;;;;;5092111;28;20111;-46
2023/08/25 01:35:00;;;;;;;15.10;10.35;;;23.30;99.10;;;;;;5092827;28;20032;-49
2023/08/25 01:37:57;;;;;;;10.88;9.80;;;23.40;99.10;;;;;;5094299;28;20137;-49
2023/08/25 01:41:03;;;;;;;10.75;9.70;;;23.40;99.20;;;;;;5093587;28;20020;-49
2023/08/25 01:43:51;;;;;;;11.63;10.43;;;23.40;99.20;;;;;;5093635;28;20024;-50
2023/08/25 01:46:40;;;;;;;12.88;10.23;;;23.30;99.30;;;;;;5092286;28;20036;-47
2023/08/25 01:49:28;;;;;;;15.57;11.07;;;23.30;99.40;;;;;;5092417;28;20028;-49
2023/08/25 01:52:15;;;;;;;11.05;9.77;;;23.10;99.80;;;;;;5093144;28;20484;-48
2023/08/25 01:55:02;;;;;;;13.23;10.48;;;23.00;99.90;;;;;;5093115;28;20036;-51
2023/08/25 01:57:48;;;;;;;11.90;10.68;;;23.00;99.90;;;;;;5092765;28;20048;-45
2023/08/25 02:00:34;;;;;;;11.50;10.10;;;23.00;99.90;;;;;;5093110;28;20120;-49
2023/08/25 02:03:20;;;;;;;12.02;10.65;;;22.90;99.90;;;;;;5094208;27;20396;-49
2023/08/25 02:06:08;;;;;;;13.73;11.00;;;23.00;99.90;;;;;;5092769;28;20452;-52
2023/08/25 02:08:54;;;;;;;13.73;12.43;;;22.90;99.90;;;;;;5093026;28;20026;-52
2023/08/25 02:11:40;;;;;;;15.18;11.32;;;23.00;99.90;;;;;;5076486;28;20101;-48
2023/08/25 02:14:26;;;;;;;18.98;13.57;;;22.90;99.90;;;;;;5091551;28;20077;-49
2023/08/25 02:17:12;;;;;;;14.23;10.93;;;22.70;99.90;;;;;;5077303;28;20024;-55
2023/08/25 02:19:58;;;;;;;13.07;11.88;;;22.70;99.90;;;;;;5091665;28;20028;-47
2023/08/25 02:22:44;;;;;;;14.32;12.50;;;22.70;99.90;;;;;;5091703;28;20027;-47
2023/08/25 02:25:30;;;;;;;11.90;10.80;;;22.70;99.90;;;;;;5091663;28;20120;-52
2023/08/25 02:28:16;;;;;;;13.73;11.23;;;22.80;99.90;;;;;;5091959;28;20028;-50
2023/08/25 02:31:02;;;;;;;13.80;12.40;;;22.80;99.90;;;;;;5076822;28;20558;-47
2023/08/25 02:33:48;;;;;;;15.10;12.68;;;22.70;99.90;;;;;;5092054;28;20039;-52
2023/08/25 02:36:34;;;;;;;13.15;11.82;;;22.60;99.90;;;;;;5056818;28;20037;-51
2023/08/25 02:39:21;;;;;;;12.68;11.40;;;22.60;99.90;;;;;;5071855;28;20064;-50
2023/08/25 02:42:07;;;;;;;13.60;10.52;;;22.60;99.90;;;;;;5071678;28;20040;-50
2023/08/25 02:44:52;;;;;;;13.02;11.73;;;22.60;99.90;;;;;;5072144;28;20044;-53
2023/08/25 02:47:38;;;;;;;14.98;12.27;;;22.70;99.90;;;;;;5070614;28;20108;-52
2023/08/25 02:50:25;;;;;;;16.05;13.57;;;22.70;99.90;;;;;;5070476;28;20408;-50
2023/08/25 02:53:11;;;;;;;17.10;12.73;;;22.70;99.90;;;;;;5056165;28;20095;-54
2023/08/25 02:55:57;;;;;;;14.18;12.88;;;22.70;99.90;;;;;;5070950;28;20034;-51
2023/08/25 02:58:42;;;;;;;12.40;10.50;;;22.60;99.90;;;;;;5071024;28;20029;-50
2023/08/25 03:01:28;;;;;;;13.77;11.30;;;22.50;99.90;;;;;;5070717;28;20524;-50
2023/08/25 03:04:14;;;;;;;15.63;10.05;;;22.40;99.90;;;;;;5071911;28;20485;-55
2023/08/25 03:07:00;;;;;;;13.27;9.45;;;22.40;99.90;;;;;;5070572;28;20024;-47
2023/08/25 03:09:46;;;;;;;11.27;10.13;;;22.40;99.90;;;;;;5072067;28;20093;-47
2023/08/25 03:12:32;;;;;;;12.27;9.40;;;22.40;99.90;;;;;;5090830;28;20067;-53
2023/08/25 03:15:18;;;;;;;13.93;10.40;;;22.30;99.90;;;;;;5091185;28;20513;-53
2023/08/25 03:18:04;;;;;;;12.30;9.82;;;22.30;99.90;;;;;;5090363;28;20035;-50
2023/08/25 03:20:54;;;;;;;13.00;10.35;;;22.20;99.90;;;;;;5091846;28;20048;-50
2023/08/25 03:23:40;;;;;;;15.45;12.90;;;22.20;99.90;;;;;;5076834;28;20020;-52
2023/08/25 03:26:26;;;;;;;12.68;11.25;;;22.20;99.90;;;;;;5090735;28;20028;-49
2023/08/25 03:29:12;;;;;;;10.35;9.35;;;22.20;99.90;;;;;;5091203;28;20032;-51
2023/08/25 03:31:58;;;;;;;11.85;8.60;;;22.20;99.90;;;;;;5090300;28;20654;-50
2023/08/25 03:34:44;;;;;;;10.18;8.52;;;22.30;99.90;;;;;;5090903;28;20028;-53
2023/08/25 03:37:30;;;;;;;13.68;9.55;;;22.20;99.90;;;;;;5074924;28;20043;-51
2023/08/25 03:40:19;;;;;;;9.52;8.63;;;22.20;99.90;;;;;;5058325;28;20093;-52
2023/08/25 03:43:05;;;;;;;10.60;8.70;;;22.10;99.90;;;;;;5071363;28;20025;-51
2023/08/25 03:45:51;;;;;;;11.93;8.70;;;22.10;99.90;;;;;;5071178;28;20032;-49
2023/08/25 03:48:37;;;;;;;11.77;9.07;;;22.10;99.90;;;;;;5071409;28;20050;-46
2023/08/25 03:51:23;;;;;;;10.30;8.93;;;22.00;99.90;;;;;;5071295;28;20024;-52
2023/08/25 03:54:10;;;;;;;9.93;8.05;;;22.00;99.90;;;;;;5071344;28;20025;-53
2023/08/25 03:56:56;;;;;;;11.38;8.82;;;22.00;99.90;;;;;;5070353;28;20058;-52
2023/08/25 03:59:42;;;;;;;9.98;8.48;;;22.00;99.90;;;;;;5071543;28;20103;-54
2023/08/25 04:02:27;;;;;;;9.60;8.38;;;22.00;99.90;;;;;;5071160;28;20032;-50
2023/08/25 04:05:14;;;;;;;11.52;8.82;;;22.00;99.90;;;;;;5071246;28;20594;-49
2023/08/25 04:08:00;;;;;;;13.02;8.98;;;22.00;99.90;;;;;;5056243;28;20378;-48
2023/08/25 04:10:47;;;;;;;10.25;8.40;;;21.90;99.90;;;;;;5071349;28;20485;-52
2023/08/25 04:13:33;;;;;;;11.60;8.90;;;21.90;99.90;;;;;;5062346;28;20039;-49
2023/08/25 04:16:19;;;;;;;13.10;8.88;;;21.90;99.90;;;;;;5074361;28;20101;-50
2023/08/25 04:19:05;;;;;;;15.07;9.10;;;21.80;99.90;;;;;;5075055;28;20507;-50
2023/08/25 04:21:51;;;;;;;8.90;8.00;;;21.80;99.90;;;;;;5074976;28;20508;-46
2023/08/25 04:24:37;;;;;;;10.50;8.32;;;21.80;99.90;;;;;;5073915;28;20074;-51
2023/08/25 04:27:22;;;;;;;12.98;8.95;;;21.80;99.90;;;;;;5046119;28;20112;-49
2023/08/25 04:30:09;;;;;;;10.48;8.88;;;21.90;99.90;;;;;;5074303;28;20591;-46
2023/08/25 04:32:55;;;;;;;11.45;9.18;;;21.90;99.90;;;;;;5059444;28;20409;-47
2023/08/25 04:35:41;;;;;;;10.40;8.15;;;22.00;99.90;;;;;;5074274;28;20033;-46
2023/08/25 04:38:26;;;;;;;14.00;9.38;;;22.00;99.90;;;;;;5073403;28;20032;-46
2023/08/25 04:41:12;;;;;;;11.43;9.43;;;22.00;99.90;;;;;;5074281;28;20029;-51
2023/08/25 04:43:59;;;;;;;11.13;8.60;;;22.10;99.90;;;;;;5074328;28;20066;-54
2023/08/25 04:46:44;;;;;;;10.43;8.48;;;22.10;99.90;;;;;;5059000;28;20512;-54
2023/08/25 04:49:30;;;;;;;12.35;8.68;;;22.10;99.90;;;;;;5074153;28;20485;-49
2023/08/25 04:52:16;;;;;;;10.77;9.00;;;22.20;99.90;;;;;;5074154;28;20481;-51
2023/08/25 04:55:03;;;;;;;14.93;9.93;;;22.20;99.90;;;;;;5073420;28;20060;-47
2023/08/25 04:57:49;;;;;;;12.35;9.43;;;22.20;99.90;;;;;;5073706;28;20059;-52
2023/08/25 05:00:35;;;;;;;13.35;8.48;;;22.10;99.90;;;;;;5075231;28;20056;-51
2023/08/25 05:03:21;;;;;;;12.65;9.57;;;22.10;99.90;;;;;;5058807;28;20386;-51
2023/08/25 05:06:07;;;;;;;10.30;8.85;;;22.20;99.90;;;;;;5058824;28;20056;-53
2023/08/25 05:08:54;;;;;;;11.52;8.45;;;22.20;99.90;;;;;;5059164;28;20021;-52
2023/08/25 05:11:40;;;;;;;15.85;12.30;;;22.20;99.90;;;;;;5073774;28;20441;-49
2023/08/25 05:14:26;;;;;;;10.65;9.48;;;22.30;99.90;;;;;;5075201;28;20485;-47
2023/08/25 05:17:12;;;;;;;13.27;9.40;;;22.40;99.90;;;;;;5059248;28;20029;-47
2023/08/25 05:19:58;;;;;;;14.38;9.77;;;22.40;99.90;;;;;;5073652;28;20032;-49
2023/08/25 05:22:44;;;;;;;14.27;9.32;;;22.50;99.90;;;;;;5072543;28;20066;-51
2023/08/25 05:25:30;;;;;;;11.45;9.95;;;22.50;99.90;;;;;;5073516;28;20047;-52
2023/08/25 05:28:16;;;;;;;11.90;8.70;;;22.50;99.90;;;;;;5073515;28;20020;-47
2023/08/25 05:31:02;;;;;;;10.77;8.52;;;22.60;99.90;;;;;;5073797;28;20417;-52
2023/08/25 05:33:48;;;;;;;11.50;8.95;;;22.70;99.90;;;;;;5073451;28;20037;-49
2023/08/25 05:36:34;;;;;;;11.18;9.95;;;22.70;99.90;;;;;;5073091;28;20067;-49
2023/08/25 05:39:21;;;;;;;13.48;9.43;;;22.70;99.90;;;;;;5074753;28;20047;-48
2023/08/25 05:42:08;;;;;;;12.98;8.52;;;22.80;99.90;;;;;;5073368;28;20077;-51
2023/08/25 05:44:54;;;;;;;12.38;8.50;;;22.80;99.90;;;;;;5073204;28;20028;-53
2023/08/25 05:47:40;;;;;;;11.93;9.07;;;22.90;99.90;;;;;;5072828;28;20452;-49
2023/08/25 05:50:26;;;;;;;18.70;9.45;;;23.00;99.90;;;;;;5072050;28;20116;-51
2023/08/25 05:53:12;;;;;;;16.13;9.20;;;23.00;99.90;;;;;;5073269;28;20025;-52
2023/08/25 05:55:58;;;;;;;14.00;9.63;;;23.00;99.90;;;;;;5073011;28;20025;-49
2023/08/25 05:58:44;;;;;;;10.77;8.90;;;23.10;99.90;;;;;;5071872;28;20071;-51
2023/08/25 06:01:31;;;;;;;9.95;8.55;;;23.20;99.90;;;;;;5072731;28;20025;-51
2023/08/25 06:04:16;;;;;;;14.77;8.90;;;23.20;99.90;;;;;;5073312;28;20035;-51
2023/08/25 06:07:02;;;;;;;17.45;9.70;;;23.30;99.80;;;;;;5072346;28;20102;-47
2023/08/25 06:09:48;;;;;;;12.65;8.93;;;23.30;99.80;;;;;;5073741;28;20025;-48
2023/08/25 06:12:34;;;;;;;11.18;8.02;;;23.40;99.80;;;;;;5072687;28;20090;-52
2023/08/25 06:15:20;;;;;;;11.70;8.38;;;23.40;99.70;;;;;;5072435;28;20051;-47
2023/08/25 06:18:06;;;;;;;10.07;8.88;;;23.40;99.80;;;;;;5072389;28;20020;-46
2023/08/25 06:20:52;;;;;;;10.32;8.88;;;23.40;99.90;;;;;;5073794;28;20099;-47
2023/08/25 06:23:38;;;;;;;11.50;8.88;;;23.40;99.90;;;;;;5072392;28;20028;-46
2023/08/25 06:26:24;;;;;;;12.05;9.15;;;23.40;99.90;;;;;;5072044;28;20116;-49
2023/08/25 06:29:11;;;;;;;14.40;8.40;;;23.60;99.90;;;;;;5071349;28;20033;-49
2023/08/25 06:31:57;;;;;;;9.30;8.05;;;23.60;99.90;;;;;;5072012;28;20051;-48
2023/08/25 06:34:48;;;;;;;10.05;7.57;;;23.60;99.90;;;;;;5070708;28;20059;-51
2023/08/25 06:37:34;;;;;;;9.32;8.30;;;23.70;99.90;;;;;;5071939;28;20029;-51
2023/08/25 06:40:20;;;;;;;13.38;8.57;;;23.70;99.90;;;;;;5057141;28;20107;-51
2023/08/25 06:43:06;;;;;;;12.55;9.13;;;23.80;99.90;;;;;;5071992;28;20024;-52
2023/08/25 06:45:54;;;;;;;11.00;8.60;;;23.90;99.90;;;;;;5072027;28;20035;-48
2023/08/25 06:48:40;;;;;;;10.95;8.77;;;23.80;99.90;;;;;;5071096;28;20033;-50
2023/08/25 06:51:26;;;;;;;10.93;8.43;;;24.00;99.90;;;;;;5072093;28;20029;-50
2023/08/25 06:54:12;;;;;;;9.73;8.45;;;24.10;99.90;;;;;;5072330;28;20036;-47
2023/08/25 06:56:58;;;;;;;10.38;7.63;;;24.10;99.90;;;;;;5056594;28;20036;-48
2023/08/25 06:59:44;;;;;;;10.38;8.07;;;24.10;99.90;;;;;;5071673;28;20025;-48
2023/08/25 07:02:30;;;;;;;9.48;7.50;;;24.20;99.90;;;;;;5084022;28;20102;-47
2023/08/25 07:05:16;;;;;;;10.02;7.53;;;24.30;99.80;;;;;;5090875;28;20036;-49
2023/08/25 07:08:02;;;;;;;9.88;8.52;;;24.10;99.90;;;;;;5074467;28;20036;-45
2023/08/25 07:10:48;;;;;;;13.07;8.68;;;24.30;99.80;;;;;;5075875;28;20060;-47
2023/08/25 07:13:34;;;;;;;10.95;8.27;;;24.40;99.70;;;;;;5090627;28;20123;-48
2023/08/25 07:16:20;;;;;;;10.65;7.97;;;24.50;99.90;;;;;;5090401;28;20089;-51
2023/08/25 07:19:06;;;;;;;10.13;8.07;;;24.50;99.20;;;;;;5091043;28;20040;-45
2023/08/25 07:21:52;;;;;;;13.15;7.65;;;24.50;99.30;;;;;;5090887;28;20161;-48
2023/08/25 07:24:38;;;;;;;9.30;7.15;;;24.60;99.00;;;;;;5091431;28;20024;-51
2023/08/25 07:27:24;;;;;;;10.93;7.90;;;24.50;99.10;;;;;;5090855;28;20031;-49
2023/08/25 07:30:10;;;;;;;8.95;7.35;;;24.40;99.40;;;;;;5090363;28;20276;-51
2023/08/25 07:32:56;;;;;;;10.10;7.85;;;24.40;99.50;;;;;;5076463;28;20016;-49
2023/08/25 07:35:42;;;;;;;9.60;8.43;;;24.30;99.60;;;;;;5090358;28;20059;-45
2023/08/25 07:38:28;;;;;;;8.27;7.47;;;24.40;99.20;;;;;;5090284;28;20016;-45
2023/08/25 07:41:17;;;;;;;11.13;7.82;;;24.50;99.30;;;;;;5089351;28;20031;-47
2023/08/25 07:44:03;;;;;;;9.20;7.70;;;24.50;99.10;;;;;;5090951;28;20558;-47
2023/08/25 07:46:49;;;;;;;8.80;7.60;;;24.50;99.30;;;;;;5077357;28;20028;-46
2023/08/25 07:49:35;;;;;;;10.25;7.40;;;24.60;99.30;;;;;;5095075;28;20078;-44
2023/08/25 07:52:21;;;;;;;13.32;8.77;;;24.90;99.20;;;;;;5094838;28;20036;-49
2023/08/25 07:55:08;;;;;;;8.63;7.72;;;25.00;98.80;;;;;;5094947;28;20039;-45
2023/08/25 07:57:54;;;;;;;11.10;7.75;;;25.00;99.00;;;;;;5094335;28;20036;-50
2023/08/25 08:00:42;;;;;;;8.00;7.10;;;25.20;98.80;;;;;;5094665;28;20449;-46
2023/08/25 08:03:29;;;;;;;10.95;7.88;;;25.30;98.50;;;;;;5093090;28;20023;-47
2023/08/25 08:06:15;;;;;;;8.18;7.30;;;25.30;98.50;;;;;;5078628;28;20429;-47
2023/08/25 08:09:01;;;;;;;7.28;6.55;;;25.40;98.20;;;;;;5093443;28;20385;-44
2023/08/25 08:11:47;;;;;;;8.90;7.10;;;25.40;98.00;;;;;;5094097;28;20426;-45
2023/08/25 08:14:35;;;;;;;10.05;6.78;;;25.30;98.10;;;;;;5095982;28;20488;-51
2023/08/25 08:17:21;;;;;;;10.48;7.35;;;25.20;98.40;;;;;;5092918;28;20261;-45
2023/08/25 08:20:12;;;;;;;11.50;7.75;;;25.20;98.40;;;;;;5094257;28;20020;-46
2023/08/25 08:22:58;;;;;;;10.23;7.00;;;25.20;98.50;;;;;;5094435;28;20035;-48
2023/08/25 08:25:43;;;;;;;10.13;7.60;;;25.20;98.50;;;;;;5094105;28;20115;-47
2023/08/25 08:28:29;;;;;;;10.30;7.18;;;25.10;98.70;;;;;;5093656;28;20114;-48
2023/08/25 08:31:18;;;;;;;9.35;7.22;;;25.30;98.70;;;;;;5078350;28;20039;-49
2023/08/25 08:34:04;;;;;;;8.05;7.25;;;25.60;98.30;;;;;;5093798;28;20050;-47
2023/08/25 08:36:50;;;;;;;9.15;7.18;;;25.60;97.90;;;;;;5079343;28;20066;-46
2023/08/25 08:39:39;;;;;;;8.55;7.28;;;25.60;97.90;;;;;;5094451;28;20035;-46
2023/08/25 08:42:25;;;;;;;10.75;7.55;;;25.60;98.20;;;;;;5093529;28;20060;-47
2023/08/25 08:45:11;;;;;;;11.80;8.30;;;25.60;98.10;;;;;;5092995;28;20024;-49
2023/08/25 08:47:59;;;;;;;9.93;7.10;;;25.50;97.90;;;;;;5093028;28;20032;-45
2023/08/25 08:50:46;;;;;;;11.65;7.55;;;25.60;97.70;;;;;;5092985;28;20539;-44
2023/08/25 08:53:32;;;;;;;9.00;7.22;;;25.60;97.90;;;;;;5093633;28;20040;-51
2023/08/25 08:56:18;;;;;;;9.77;7.35;;;25.50;97.80;;;;;;5093459;28;20438;-49
2023/08/25 08:59:04;;;;;;;9.57;8.18;;;25.50;97.90;;;;;;5078623;28;20027;-51
2023/08/25 09:01:52;;;;;;;14.00;8.00;;;25.50;98.10;;;;;;5093553;28;20031;-45
2023/08/25 09:04:40;;;;;;;10.32;8.25;;;25.50;98.20;;;;;;5078249;28;20020;-47
2023/08/25 09:07:31;;;;;;;11.35;8.27;;;25.40;98.50;;;;;;5078868;28;20020;-46
2023/08/25 09:10:17;;;;;;;9.15;6.85;;;25.50;98.30;;;;;;5078724;28;20408;-47
2023/08/25 09:13:03;;;;;;;8.63;7.63;;;25.50;98.50;;;;;;5093024;28;20515;-49
2023/08/25 09:15:53;;;;;;;12.30;7.43;;;25.60;98.10;;;;;;5092240;28;20033;-46
2023/08/25 09:18:39;;;;;;;9.68;8.25;;;25.60;98.30;;;;;;5092052;28;20052;-45
2023/08/25 09:21:25;;;;;;;9.88;7.68;;;25.50;98.00;;;;;;5093893;28;20066;-44
2023/08/25 09:24:20;;;;;;;8.93;7.63;;;25.50;98.10;;;;;;5093112;28;20034;-46
2023/08/25 09:27:19;;;;;;;8.68;7.78;;;25.70;98.20;;;;;;5092759;28;20028;-44
2023/08/25 09:30:06;;;;;;;10.55;7.88;;;25.80;97.90;;;;;;5092093;28;20039;-48
2023/08/25 09:33:11;;;;;;;8.77;7.68;;;25.80;98.00;;;;;;5077721;28;20024;-44
2023/08/25 09:36:01;;;;;;;;;;;25.70;98.10;;;;;;5092723;28;20354;-48
2023/08/25 09:38:47;;;;;;;9.77;7.00;;;25.80;97.80;;;;;;5093224;28;19923;-49
2023/08/25 09:41:33;;;;;;;9.10;7.63;;;25.80;98.00;;;;;;5088631;28;20025;-50
2023/08/25 09:44:19;;;;;;;8.30;6.60;;;25.80;97.90;;;;;;5081383;28;20028;-54
2023/08/25 09:47:08;;;;;;;7.70;6.45;;;25.80;97.90;;;;;;5082144;28;20558;-52
2023/08/25 09:49:54;;;;;;;12.18;7.75;;;25.70;98.00;;;;;;5084048;28;20050;-43
2023/08/25 09:52:43;;;;;;;13.70;7.85;;;26.00;97.30;;;;;;5083725;28;20029;-44
2023/08/25 09:55:29;;;;;;;9.15;7.13;;;26.10;97.50;;;;;;5080994;28;20031;-49
2023/08/25 09:58:15;;;;;;;7.40;6.60;;;26.10;97.40;;;;;;5072924;28;20020;-44
2023/08/25 10:01:01;;;;;;;7.55;6.75;;;26.10;97.00;;;;;;5061116;28;20025;-46
2023/08/25 10:03:47;;;;;;;10.13;7.35;;;26.10;97.20;;;;;;5071847;28;20024;-45
2023/08/25 10:06:37;;;;;;;7.72;6.97;;;26.00;97.20;;;;;;5076822;28;20032;-46
2023/08/25 10:09:24;;;;;;;7.85;6.72;;;26.00;97.10;;;;;;5079686;28;20033;-49
2023/08/25 10:12:11;;;;;;;7.82;7.05;;;26.10;97.30;;;;;;5080949;28;20053;-50
2023/08/25 10:14:59;;;;;;;10.73;6.90;;;26.10;97.40;;;;;;5089683;28;20081;-48
2023/08/25 10:17:46;;;;;;;8.55;7.07;;;26.10;97.60;;;;;;5082331;28;20029;-49
2023/08/25 10:20:37;;;;;;;7.55;6.80;;;26.10;97.70;;;;;;5071845;28;20029;-46
2023/08/25 10:23:24;;;;;;;12.07;7.40;;;26.10;97.80;;;;;;5072075;28;20016;-46
2023/08/25 10:26:10;;;;;;;10.77;6.88;;;26.20;97.80;;;;;;5072125;28;20060;-55
2023/08/25 10:28:56;;;;;;;10.00;7.07;;;26.10;97.50;;;;;;5072960;28;20036;-47
2023/08/25 10:31:54;;;;;;;7.93;7.20;;;26.10;98.00;;;;;;5072486;28;20072;-48
2023/08/25 10:34:44;;;;;;;11.13;7.30;;;26.20;97.70;;;;;;5057772;28;20063;-46
2023/08/25 10:37:37;;;;;;;7.90;7.10;;;26.10;98.10;;;;;;5072010;28;20024;-46
2023/08/25 10:40:40;;;;;;;12.77;7.93;;;26.10;98.20;;;;;;5073917;28;20574;-49
2023/08/25 10:43:34;;;;;;;10.25;7.38;;;25.90;98.70;;;;;;5071146;28;20033;-43
2023/08/25 10:46:22;;;;;;;8.77;7.88;;;25.90;98.20;;;;;;5081135;28;20107;-51
2023/08/25 10:49:12;;;;;;;12.45;7.88;;;26.00;98.00;;;;;;5076503;28;20065;-48
2023/08/25 10:52:15;;;;;;;8.68;7.80;;;26.10;98.20;;;;;;5076791;28;20499;-45
2023/08/25 10:55:25;;;;;;;11.35;7.82;;;26.00;98.10;;;;;;5079893;28;20115;-46
2023/08/25 10:58:17;;;;;;;10.05;8.05;;;26.00;98.10;;;;;;5080803;28;20063;-44
2023/08/25 11:01:03;;;;;;;12.35;8.38;;;25.80;98.50;;;;;;5071843;28;20020;-49
2023/08/25 11:04:06;;;;;;;10.82;8.27;;;26.00;98.20;;;;;;5085097;28;20073;-51
2023/08/25 11:06:57;;;;;;;9.95;8.70;;;26.10;98.30;;;;;;5072424;28;20064;-44
2023/08/25 11:09:42;;;;;;;11.23;8.57;;;26.00;98.70;;;;;;5072590;28;20024;-49
2023/08/25 11:12:29;;;;;;;12.18;8.65;;;26.00;97.90;;;;;;5070998;28;20033;-47
2023/08/25 11:15:15;;;;;;;11.55;9.20;;;26.00;98.20;;;;;;5071864;28;20032;-50
2023/08/25 11:18:01;;;;;;;10.38;9.45;;;25.90;98.60;;;;;;5072196;28;20409;-44
2023/08/25 11:20:47;;;;;;;9.95;8.57;;;25.80;98.50;;;;;;5072682;28;20043;-52
2023/08/25 11:23:41;;;;;;;10.43;8.48;;;25.80;98.90;;;;;;5072296;28;20020;-48
2023/08/25 11:26:27;;;;;;;8.82;8.02;;;25.90;98.20;;;;;;5071271;28;20036;-47
2023/08/25 11:29:13;;;;;;;9.77;8.45;;;26.00;98.10;;;;;;5055334;28;20029;-49
2023/08/25 11:32:00;;;;;;;11.82;8.35;;;26.20;98.00;;;;;;5071242;28;20043;-45
2023/08/25 11:34:49;;;;;;;10.03;9.03;;;26.50;97.70;;;;;;5072160;28;20021;-52
2023/08/25 11:37:35;;;;;;;10.00;8.68;;;26.60;97.40;;;;;;5074170;28;20024;-48
2023/08/25 11:40:22;;;;;;;10.32;8.88;;;26.80;97.20;;;;;;5085497;28;20028;-48
2023/08/25 11:43:07;;;;;;;11.43;8.70;;;26.90;97.30;;;;;;5091848;28;20024;-47
2023/08/25 11:45:53;;;;;;;11.05;8.70;;;27.10;97.00;;;;;;5091754;28;20024;-49
2023/08/25 11:48:40;;;;;;;11.77;8.35;;;27.20;96.80;;;;;;5083966;28;20077;-52
2023/08/25 11:51:27;;;;;;;10.15;9.07;;;27.10;97.10;;;;;;5089988;28;20194;-51
2023/08/25 11:54:13;;;;;;;11.18;8.30;;;27.00;97.30;;;;;;5083214;28;20036;-47
2023/08/25 11:56:59;;;;;;;11.73;9.32;;;27.00;97.00;;;;;;5081229;28;20058;-52
2023/08/25 11:59:46;;;;;;;11.73;8.88;;;27.30;96.70;;;;;;5073562;28;20032;-52
2023/08/25 12:02:32;;;;;;;11.68;8.30;;;27.30;96.50;;;;;;5086015;28;20039;-47
2023/08/25 12:05:18;;;;;;;9.25;8.45;;;27.50;96.40;;;;;;5085462;28;20115;-45
2023/08/25 12:08:04;;;;;;;9.93;8.75;;;27.50;96.70;;;;;;5090402;28;20058;-49
2023/08/25 12:10:53;;;;;;;11.02;8.38;;;27.80;96.40;;;;;;5090986;28;20108;-48
2023/08/25 12:13:46;;;;;;;12.27;10.98;;;27.90;96.50;;;;;;5082063;28;20515;-48
2023/08/25 12:16:32;;;;;;;10.30;9.40;;;28.00;96.10;;;;;;5089724;28;20051;-50
2023/08/25 12:19:18;;;;;;;11.25;8.80;;;28.10;95.90;;;;;;5088924;28;20031;-47
2023/08/25 12:22:04;;;;;;;12.18;9.57;;;28.00;96.00;;;;;;5092285;28;20020;-50
2023/08/25 12:24:50;;;;;;;13.70;10.18;;;28.00;95.90;;;;;;5087736;28;20027;-53
2023/08/25 12:27:36;;;;;;;10.13;9.18;;;28.10;95.60;;;;;;5092018;28;20090;-44
2023/08/25 12:30:22;;;;;;;12.68;9.13;;;28.20;95.60;;;;;;5076801;28;20031;-50
2023/08/25 12:33:08;;;;;;;12.32;8.77;;;28.20;95.80;;;;;;5085807;28;20483;-51
2023/08/25 12:35:54;;;;;;;10.43;9.43;;;28.30;95.40;;;;;;5086282;28;20073;-49
2023/08/25 12:38:40;;;;;;;10.48;8.45;;;28.40;95.50;;;;;;5088555;28;20528;-50
2023/08/25 12:41:26;;;;;;;12.50;8.85;;;28.40;95.60;;;;;;5084126;28;20033;-54
2023/08/25 12:44:12;;;;;;;8.88;8.00;;;28.40;95.30;;;;;;5082551;28;20025;-50
2023/08/25 12:46:58;;;;;;;9.65;8.35;;;28.50;95.40;;;;;;5067181;28;20028;-54
2023/08/25 12:49:44;;;;;;;12.50;11.20;;;28.70;95.20;;;;;;5085388;28;20441;-51
2023/08/25 12:52:33;;;;;;;11.60;10.13;;;28.70;94.60;;;;;;5086314;28;20054;-49
2023/08/25 12:55:19;;;;;;;10.38;9.07;;;28.70;94.60;;;;;;5090924;28;20551;-47
2023/08/25 12:58:05;;;;;;;12.57;9.05;;;28.50;95.00;;;;;;5091546;28;20091;-54
2023/08/25 13:00:51;;;;;;;9.18;8.27;;;28.50;94.70;;;;;;5083954;28;20171;-46
2023/08/25 13:03:37;;;;;;;14.90;11.20;;;28.50;95.00;;;;;;5086677;28;20453;-50
2023/08/25 13:06:23;;;;;;;9.43;8.52;;;28.40;95.40;;;;;;5079817;28;20047;-45
2023/08/25 13:09:09;;;;;;;9.25;8.35;;;28.40;95.30;;;;;;5093033;28;20028;-49
2023/08/25 13:11:55;;;;;;;8.55;7.65;;;28.30;95.10;;;;;;5086013;28;20129;-49
2023/08/25 13:14:42;;;;;;;8.75;7.65;;;28.20;95.10;;;;;;5090536;28;20028;-47
2023/08/25 13:17:27;;;;;;;9.05;8.00;;;28.10;94.90;;;;;;5087779;28;20032;-50
2023/08/25 13:20:13;;;;;;;9.02;7.40;;;28.00;94.90;;;;;;5094478;28;20052;-53
2023/08/25 13:23:00;;;;;;;8.13;7.40;;;27.90;95.10;;;;;;5092825;28;20027;-50
2023/08/25 13:25:46;;;;;;;8.73;7.07;;;27.90;94.10;;;;;;5093985;28;20029;-48
2023/08/25 13:28:32;;;;;;;8.50;7.32;;;28.00;94.30;;;;;;5092692;28;20036;-48
2023/08/25 13:31:18;;;;;;;8.57;7.07;;;27.90;94.50;;;;;;5080011;28;20044;-52
2023/08/25 13:34:05;;;;;;;12.13;7.50;;;27.90;94.60;;;;;;5091874;28;20504;-52
2023/08/25 13:36:51;;;;;;;8.95;7.35;;;27.80;94.90;;;;;;5092413;28;20020;-50
2023/08/25 13:39:38;;;;;;;10.57;7.35;;;27.60;94.60;;;;;;5094921;27;20020;-46
2023/08/25 13:42:25;;;;;;;9.18;6.57;;;27.50;94.50;;;;;;5079741;28;20404;-51
2023/08/25 13:45:11;;;;;;;8.65;7.75;;;27.50;94.40;;;;;;5078635;28;20039;-51
2023/08/25 13:47:56;;;;;;;7.63;6.90;;;27.60;94.20;;;;;;5093449;28;20028;-50
2023/08/25 13:50:42;;;;;;;7.28;6.57;;;27.50;94.60;;;;;;5093670;28;20074;-54
2023/08/25 13:53:28;;;;;;;9.10;6.47;;;27.40;94.40;;;;;;5092212;28;20119;-50
2023/08/25 13:56:14;;;;;;;8.35;6.55;;;27.30;94.60;;;;;;5093405;28;20028;-48
2023/08/25 13:59:00;;;;;;;8.77;6.15;;;27.30;94.60;;;;;;5078314;28;20031;-51
2023/08/25 14:01:46;;;;;;;8.88;6.68;;;27.40;94.50;;;;;;5093727;28;20039;-51
2023/08/25 14:04:32;;;;;;;9.05;6.57;;;27.30;94.60;;;;;;5093340;28;20032;-48
2023/08/25 14:07:18;;;;;;;7.93;5.60;;;27.50;94.30;;;;;;5082229;28;20032;-46
2023/08/25 14:10:05;;;;;;;10.70;6.80;;;27.70;94.30;;;;;;5074766;28;20111;-47
2023/08/25 14:12:52;;;;;;;6.82;5.95;;;28.30;93.80;;;;;;5073685;28;20106;-48
2023/08/25 14:15:38;;;;;;;8.40;6.15;;;28.80;93.10;;;;;;5086202;28;20031;-49
2023/08/25 14:18:24;;;;;;;7.28;6.35;;;28.80;92.90;;;;;;5092649;28;20442;-48
2023/08/25 14:21:10;;;;;;;6.72;6.13;;;28.90;92.60;;;;;;5092029;28;20079;-47